Time;durP1;ratioP1;P1;durP2;ratioP2;P2;SDS_P1;SDS_P2;PMS_P1;PMS_P2;Temp;Humidity;BMP_temperature;BMP_pressure;BME280_temperature;BME280_humidity;BME280_pressure;Samples;Min_cycle;Max_cycle;Signal;HPM_P1;HPM_P2
2022/10/05 00:00:51;;;;;;;4.67;2.40;;;;;;;13.54;61.67;101580.94;4902721;28;97542;-49
2022/10/05 00:03:17;;;;;;;3.17;2.00;;;;;;;13.53;61.36;101584.97;4906426;28;97633;-50
2022/10/05 00:05:44;;;;;;;2.17;2.00;;;;;;;13.50;61.50;101571.34;4906238;28;97235;-49
2022/10/05 00:08:09;;;;;;;8.30;2.40;;;;;;;13.51;61.40;101581.94;4905816;28;97160;-49
2022/10/05 00:10:35;;;;;;;2.23;1.90;;;;;;;13.49;61.55;101584.44;4905487;28;97243;-49
2022/10/05 00:13:01;;;;;;;2.73;2.30;;;;;;;13.50;61.39;101568.56;4908394;28;97596;-48
2022/10/05 00:15:28;;;;;;;4.57;2.40;;;;;;;13.48;61.55;101560.78;4907170;28;97256;-50
2022/10/05 00:17:54;;;;;;;3.20;2.30;;;;;;;13.45;61.52;101561.75;4908314;28;97378;-50
2022/10/05 00:20:22;;;;;;;2.23;1.83;;;;;;;13.46;61.74;101556.97;4909163;28;97204;-51
2022/10/05 00:22:54;;;;;;;3.00;2.10;;;;;;;13.46;61.59;101559.75;4908495;28;98927;-49
2022/10/05 00:25:20;;;;;;;4.83;2.50;;;;;;;13.46;61.45;101562.50;4905921;28;101727;-49
2022/10/05 00:27:59;;;;;;;3.10;2.47;;;;;;;13.45;61.71;101564.50;4905622;28;96837;-50
2022/10/05 00:30:30;;;;;;;3.07;1.77;;;;;;;13.40;61.53;101553.41;4906818;28;97094;-50
2022/10/05 00:32:55;;;;;;;1.97;1.77;;;;;;;13.37;61.57;101557.91;4906281;28;102223;-50
2022/10/05 00:35:20;;;;;;;3.47;2.37;;;;;;;13.36;61.60;101559.19;4908299;28;111496;-50
2022/10/05 00:37:52;;;;;;;2.10;1.93;;;;;;;13.35;61.89;101568.72;4908872;28;97432;-50
2022/10/05 00:40:35;;;;;;;2.77;2.57;;;;;;;13.35;61.92;101562.41;4907916;28;97389;-50
2022/10/05 00:43:11;;;;;;;2.53;2.33;;;;;;;13.35;61.87;101556.88;4908679;28;97237;-50
2022/10/05 00:45:44;;;;;;;2.30;2.20;;;;;;;13.33;61.80;101581.50;4905900;28;101520;-50
2022/10/05 00:48:31;;;;;;;3.30;2.83;;;;;;;13.30;62.22;101571.44;4907189;28;96971;-50
2022/10/05 00:51:06;;;;;;;2.50;2.30;;;;;;;13.29;61.94;101570.66;4904943;28;96675;-50
2022/10/05 00:53:41;;;;;;;2.60;2.30;;;;;;;13.31;62.06;101564.66;4904541;28;98029;-50
2022/10/05 00:56:09;;;;;;;3.70;2.27;;;;;;;13.32;61.99;101564.16;4907168;28;98524;-50
2022/10/05 00:58:48;;;;;;;2.17;1.90;;;;;;;13.32;62.16;101569.66;4909154;28;96716;-50
2022/10/05 01:01:25;;;;;;;1.80;1.70;;;;;;;13.32;62.54;101564.16;4904506;28;97101;-50
2022/10/05 01:04:27;;;;;;;1.93;1.83;;;;;;;13.33;62.54;101567.69;4907433;28;100677;-50
2022/10/05 01:07:17;;;;;;;2.20;2.00;;;;;;;13.32;62.48;101555.13;4907590;28;99942;-50
2022/10/05 01:09:45;;;;;;;3.10;2.30;;;;;;;13.32;62.03;101555.84;4904707;28;96881;-50
2022/10/05 01:12:32;;;;;;;3.70;1.97;;;;;;;13.34;62.17;101542.34;4906581;28;97422;-50
2022/10/05 01:15:16;;;;;;;4.80;2.40;;;;;;;13.34;62.16;101536.81;4905314;28;97533;-50
2022/10/05 01:17:55;;;;;;;8.40;1.93;;;;;;;13.37;62.74;101540.56;4906107;28;100271;-50
2022/10/05 01:20:42;;;;;;;7.93;2.30;;;;;;;13.40;62.78;101534.84;4901936;28;97079;-50
2022/10/05 01:23:34;;;;;;;3.47;2.30;;;;;;;13.41;62.25;101522.50;4907536;28;97086;-50
2022/10/05 01:26:06;;;;;;;4.63;2.17;;;;;;;13.43;62.49;101528.31;4900320;28;102186;-50
2022/10/05 01:28:40;;;;;;;3.03;1.87;;;;;;;13.45;62.27;101523.03;4906113;28;97471;-50
2022/10/05 01:31:12;;;;;;;3.47;2.33;;;;;;;13.48;62.43;101524.84;4902917;28;97070;-50
2022/10/05 01:33:47;;;;;;;5.43;2.30;;;;;;;13.52;62.53;101516.31;4908401;28;97180;-50
2022/10/05 01:36:30;;;;;;;2.97;1.77;;;;;;;13.53;63.12;101524.13;4906247;28;97869;-50
2022/10/05 01:39:10;;;;;;;2.07;1.87;;;;;;;13.57;62.63;101526.66;4905413;28;101666;-50
2022/10/05 01:41:51;;;;;;;6.03;2.03;;;;;;;13.60;62.87;101524.94;4906909;28;97180;-50
2022/10/05 01:44:24;;;;;;;1.77;1.67;;;;;;;13.60;62.61;101513.88;4907823;28;97179;-50
2022/10/05 01:47:08;;;;;;;2.13;1.93;;;;;;;13.63;62.99;101513.63;4904021;28;97329;-50
2022/10/05 01:49:40;;;;;;;4.63;2.37;;;;;;;13.66;62.48;101514.66;4907372;28;102462;-50
2022/10/05 01:52:33;;;;;;;5.53;1.80;;;;;;;13.69;63.24;101510.91;4908925;28;96929;-50
2022/10/05 01:55:20;;;;;;;1.87;1.77;;;;;;;13.71;62.73;101508.41;4905024;28;96824;-50
2022/10/05 01:58:08;;;;;;;3.27;2.10;;;;;;;13.76;62.67;101499.41;4903038;28;103063;-50
2022/10/05 02:00:48;;;;;;;5.47;2.17;;;;;;;13.79;62.82;101495.63;4906083;28;97273;-50
2022/10/05 02:03:20;;;;;;;5.50;2.00;;;;;;;13.83;62.77;101487.84;4904182;28;97141;-50
2022/10/05 02:05:55;;;;;;;3.37;2.50;;;;;;;13.87;62.94;101478.06;4903709;28;97269;-49
2022/10/05 02:08:36;;;;;;;2.10;2.00;;;;;;;13.89;63.27;101478.34;4903984;28;103208;-50
2022/10/05 02:11:07;;;;;;;4.43;2.33;;;;;;;13.92;62.95;101474.59;4905262;28;101765;-50
2022/10/05 02:13:43;;;;;;;9.60;2.40;;;;;;;13.95;62.97;101473.63;4907637;28;97134;-50
2022/10/05 02:16:20;;;;;;;3.37;2.60;;;;;;;14.01;63.12;101457.03;4909258;28;97369;-50
2022/10/05 02:18:53;;;;;;;2.13;2.03;;;;;;;14.04;62.99;101458.81;4909450;28;97218;-50
2022/10/05 02:21:20;;;;;;;5.80;2.57;;;;;;;14.08;62.80;101468.38;4907185;28;97334;-50
2022/10/05 02:23:49;;;;;;;4.73;2.53;;;;;;;14.16;62.78;101466.66;4910805;28;97219;-50
2022/10/05 02:26:17;;;;;;;2.87;2.50;;;;;;;14.18;62.82;101466.16;4907326;28;97066;-50
2022/10/05 02:28:48;;;;;;;4.83;2.63;;;;;;;14.20;62.88;101463.63;4902872;28;97323;-51
2022/10/05 02:31:19;;;;;;;3.67;2.40;;;;;;;14.23;62.79;101468.97;4909373;28;97268;-51
2022/10/05 02:33:45;;;;;;;7.60;2.80;;;;;;;14.25;62.89;101462.91;4908943;28;97176;-50
2022/10/05 02:36:22;;;;;;;4.83;2.50;;;;;;;14.23;63.10;101468.97;4906238;28;106984;-50
2022/10/05 02:39:14;;;;;;;6.93;2.40;;;;;;;14.24;62.97;101462.16;4909519;28;100509;-50
2022/10/05 02:41:42;;;;;;;2.10;1.90;;;;;;;14.20;62.91;101461.63;4908502;28;102437;-50
2022/10/05 02:44:36;;;;;;;3.77;1.60;;;;;;;14.26;63.04;101461.66;4910435;28;97198;-50
2022/10/05 02:47:09;;;;;;;8.53;2.30;;;;;;;14.24;63.01;101459.38;4909310;28;97170;-50
2022/10/05 02:49:52;;;;;;;8.40;2.00;;;;;;;14.28;63.51;101459.16;4906090;28;97350;-51
2022/10/05 02:52:44;;;;;;;5.00;2.33;;;;;;;14.31;63.87;101449.13;4904254;28;96965;-50
2022/10/05 02:55:27;;;;;;;7.23;2.40;;;;;;;14.35;63.57;101452.41;4904014;28;97425;-50
2022/10/05 02:58:09;;;;;;;10.23;2.43;;;;;;;14.36;63.40;101460.22;4910137;28;97340;-50
2022/10/05 03:00:53;;;;;;;5.67;2.60;;;;;;;14.36;63.05;101462.97;4905493;28;100496;-50
2022/10/05 03:03:29;;;;;;;2.33;2.23;;;;;;;14.36;63.16;101451.91;4908346;28;101663;-50
2022/10/05 03:06:00;;;;;;;1.93;1.77;;;;;;;14.36;63.10;101460.22;4907464;28;96986;-50
2022/10/05 03:08:45;;;;;;;3.70;2.37;;;;;;;14.39;63.18;101464.75;4905718;28;96940;-50
2022/10/05 03:11:24;;;;;;;3.97;2.50;;;;;;;14.41;63.25;101456.72;4912104;28;101109;-50
2022/10/05 03:14:21;;;;;;;2.93;2.30;;;;;;;14.40;63.57;101454.41;4907898;28;101555;-50
2022/10/05 03:17:03;;;;;;;2.33;2.20;;;;;;;14.39;63.27;101448.16;4908766;28;96721;-50
2022/10/05 03:19:53;;;;;;;3.00;2.37;;;;;;;14.38;63.59;101443.84;4905758;28;98559;-50
2022/10/05 03:22:47;;;;;;;3.20;2.33;;;;;;;14.37;63.74;101441.59;4907243;28;97482;-50
2022/10/05 03:25:27;;;;;;;2.63;1.80;;;;;;;14.38;63.47;101443.84;4903656;28;102492;-50
2022/10/05 03:27:53;;;;;;;8.90;2.80;;;;;;;14.38;63.15;101435.56;4906999;28;97361;-50
2022/10/05 03:30:21;;;;;;;3.63;2.43;;;;;;;14.38;63.07;101438.31;4905173;28;98229;-50
2022/10/05 03:33:01;;;;;;;2.40;2.20;;;;;;;14.38;63.36;101432.78;4905633;28;98883;-50
2022/10/05 03:35:50;;;;;;;4.60;2.13;;;;;;;14.38;63.29;101427.25;4906224;28;97208;-50
2022/10/05 03:38:27;;;;;;;3.10;2.07;;;;;;;14.39;63.11;101422.47;4909437;28;97050;-50
2022/10/05 03:41:15;;;;;;;4.63;2.23;;;;;;;14.39;63.37;101412.16;4908713;28;96894;-50
2022/10/05 03:44:12;;;;;;;4.20;2.40;;;;;;;14.38;63.63;101421.72;4910940;28;103338;-50
2022/10/05 03:46:56;;;;;;;2.50;2.40;;;;;;;14.40;63.50;101415.66;4905214;28;100242;-50
2022/10/05 03:49:43;;;;;;;2.83;2.57;;;;;;;14.42;63.38;101407.63;4907188;28;97224;-50
2022/10/05 03:52:15;;;;;;;4.33;2.70;;;;;;;14.42;63.34;101408.38;4896679;28;97435;-50
2022/10/05 03:54:47;;;;;;;3.43;2.20;;;;;;;14.45;63.25;101412.91;4906860;28;97274;-50
2022/10/05 03:57:18;;;;;;;6.30;2.10;;;;;;;14.49;63.22;101402.34;4904387;28;98098;-50
2022/10/05 04:00:01;;;;;;;12.63;2.50;;;;;;;14.50;63.47;101395.56;4906768;28;97097;-50
2022/10/05 04:02:32;;;;;;;4.40;2.73;;;;;;;14.54;63.20;101387.00;4904849;28;96757;-50
2022/10/05 04:05:09;;;;;;;5.67;2.47;;;;;;;14.57;63.36;101388.78;4907679;28;104617;-50
2022/10/05 04:07:42;;;;;;;2.60;2.40;;;;;;;14.59;63.29;101389.03;4903219;28;101675;-50
2022/10/05 04:10:27;;;;;;;4.30;2.30;;;;;;;14.63;63.48;101382.00;4899811;28;97583;-53
2022/10/05 04:13:05;;;;;;;4.80;2.67;;;;;;;14.68;63.32;101384.00;4905201;28;97308;-50
2022/10/05 04:15:42;;;;;;;4.17;2.40;;;;;;;14.71;63.20;101382.22;4902675;28;97668;-50
2022/10/05 04:18:43;;;;;;;3.10;2.60;;;;;;;14.77;63.32;101392.06;4902421;28;98567;-50
2022/10/05 04:21:24;;;;;;;3.00;2.40;;;;;;;14.79;63.24;101392.31;4908265;28;97101;-50
2022/10/05 04:24:01;;;;;;;7.33;2.43;;;;;;;14.80;63.52;101393.84;4907460;28;101871;-50
2022/10/05 04:26:36;;;;;;;3.00;2.67;;;;;;;14.84;63.23;101390.81;4904534;28;101956;-50
2022/10/05 04:29:11;;;;;;;5.50;2.60;;;;;;;14.87;63.20;101382.22;4906035;28;96877;-50
2022/10/05 04:31:58;;;;;;;4.57;2.33;;;;;;;14.87;63.21;101382.22;4906213;28;97019;-50
2022/10/05 04:34:32;;;;;;;2.60;2.30;;;;;;;14.86;63.23;101379.97;4908049;28;97415;-50
2022/10/05 04:37:04;;;;;;;2.70;2.50;;;;;;;14.86;63.07;101375.19;4905094;28;102590;-50
2022/10/05 04:39:36;;;;;;;2.60;2.40;;;;;;;14.86;63.24;101366.88;4907589;28;102392;-50
2022/10/05 04:42:20;;;;;;;3.93;2.27;;;;;;;14.84;63.17;101376.94;4908796;28;97403;-50
2022/10/05 04:45:10;;;;;;;12.13;3.03;;;;;;;14.81;63.45;101375.16;4906132;28;96954;-50
2022/10/05 04:48:02;;;;;;;2.80;2.30;;;;;;;14.74;63.36;101376.44;4902109;28;103322;-50
2022/10/05 04:50:37;;;;;;;2.53;2.33;;;;;;;14.70;63.05;101378.69;4905943;28;100391;-50
2022/10/05 04:53:05;;;;;;;3.80;2.13;;;;;;;14.66;63.20;101382.97;4907008;28;98344;-50
2022/10/05 04:55:52;;;;;;;2.73;2.60;;;;;;;14.58;63.40;101387.50;4907588;28;97108;-50
2022/10/05 04:58:37;;;;;;;5.20;2.40;;;;;;;14.53;63.40;101386.25;4904410;28;100551;-49
2022/10/05 05:01:46;;;;;;;5.20;2.80;;;;;;;14.49;63.56;101374.66;4908832;28;102199;-50
2022/10/05 05:04:14;;;;;;;3.53;2.33;;;;;;;14.45;63.36;101367.84;4906438;28;97254;-50
2022/10/05 05:06:53;;;;;;;3.63;2.20;;;;;;;14.46;63.66;101369.38;4907321;28;97736;-50
2022/10/05 05:09:24;;;;;;;3.37;2.57;;;;;;;14.45;63.44;101378.94;4905513;28;101562;-50
2022/10/05 05:11:55;;;;;;;3.37;3.07;;;;;;;14.40;63.33;101385.97;4902012;28;97392;-50
2022/10/05 05:14:44;;;;;;;2.70;2.07;;;;;;;14.36;63.29;101396.53;4905405;28;97246;-50
2022/10/05 05:17:36;;;;;;;2.47;2.20;;;;;;;14.31;63.24;101385.47;4897180;28;98015;-50
2022/10/05 05:20:12;;;;;;;3.70;2.33;;;;;;;14.27;63.32;101385.66;4905319;28;97457;-50
2022/10/05 05:22:49;;;;;;;3.33;2.53;;;;;;;14.21;63.32;101393.22;4907043;28;100648;-50
2022/10/05 05:25:29;;;;;;;6.23;2.40;;;;;;;14.16;63.28;101391.94;4903530;28;96640;-51
2022/10/05 05:28:03;;;;;;;2.37;2.10;;;;;;;14.11;63.26;101380.84;4899109;28;97410;-50
2022/10/05 05:30:37;;;;;;;2.27;2.10;;;;;;;14.08;63.34;101374.31;4905996;28;97260;-50
2022/10/05 05:33:06;;;;;;;6.97;2.00;;;;;;;14.06;63.45;101374.06;4906547;28;97403;-50
2022/10/05 05:35:59;;;;;;;3.30;2.50;;;;;;;14.09;63.66;101380.56;4904766;28;97591;-50
2022/10/05 05:38:34;;;;;;;3.37;2.37;;;;;;;14.08;63.49;101379.84;4907950;28;97251;-50
2022/10/05 05:41:08;;;;;;;5.60;2.50;;;;;;;14.11;63.44;101375.28;4902911;28;103623;-51
2022/10/05 05:44:01;;;;;;;4.97;2.67;;;;;;;14.12;63.78;101374.81;4903070;28;97957;-50
2022/10/05 05:46:37;;;;;;;4.30;2.47;;;;;;;14.13;63.69;101379.09;4907210;28;97379;-50
2022/10/05 05:49:11;;;;;;;3.87;2.00;;;;;;;14.15;63.67;101384.13;4904848;28;96967;-50
2022/10/05 05:51:44;;;;;;;3.50;2.27;;;;;;;14.17;63.57;101382.38;4906138;28;101895;-51
2022/10/05 05:54:28;;;;;;;4.30;2.30;;;;;;;14.20;63.76;101386.16;4903547;28;98640;-51
2022/10/05 05:57:22;;;;;;;5.60;2.20;;;;;;;14.21;63.86;101387.66;4906947;28;97308;-50
2022/10/05 06:00:04;;;;;;;12.87;2.27;;;;;;;14.23;63.94;101379.63;4903210;28;96975;-50
2022/10/05 06:02:44;;;;;;;5.33;2.30;;;;;;;14.28;63.98;101384.44;4904179;28;96909;-49
2022/10/05 06:05:22;;;;;;;4.10;2.10;;;;;;;14.33;63.77;101386.47;4905293;28;97404;-50
2022/10/05 06:07:50;;;;;;;2.87;2.67;;;;;;;14.34;63.69;101385.22;4906288;28;96902;-49
2022/10/05 06:10:27;;;;;;;4.30;2.27;;;;;;;14.40;63.98;101376.91;4905052;28;97444;-50
2022/10/05 06:12:56;;;;;;;5.00;2.43;;;;;;;14.45;63.80;101379.69;4906166;28;101712;-50
2022/10/05 06:15:49;;;;;;;6.07;2.93;;;;;;;14.51;64.10;101374.91;4905982;28;101595;-50
2022/10/05 06:18:18;;;;;;;5.77;4.10;;;;;;;14.56;63.75;101382.47;4905838;28;97066;-50
2022/10/05 06:20:49;;;;;;;7.43;3.53;;;;;;;14.64;63.78;101379.97;4903595;28;97235;-50
2022/10/05 06:23:28;;;;;;;3.97;3.67;;;;;;;14.73;63.82;101391.56;4907037;28;96861;-50
2022/10/05 06:26:08;;;;;;;9.67;3.70;;;;;;;14.79;63.80;101389.53;4904014;28;96941;-50
2022/10/05 06:28:33;;;;;;;5.80;3.73;;;;;;;14.86;63.56;101397.34;4897543;28;96679;-50
2022/10/05 06:31:23;;;;;;;4.90;3.93;;;;;;;14.93;63.76;101393.31;4905068;28;97493;-50
2022/10/05 06:33:58;;;;;;;5.83;4.43;;;;;;;15.02;63.64;101393.84;4904375;28;102144;-50
2022/10/05 06:36:45;;;;;;;4.37;3.70;;;;;;;15.10;63.67;101393.28;4898742;28;97435;-50
2022/10/05 06:39:30;;;;;;;4.33;3.90;;;;;;;15.17;63.94;101398.34;4905423;28;97162;-50
2022/10/05 06:42:04;;;;;;;5.83;3.90;;;;;;;15.22;63.53;101394.81;4902934;28;96957;-50
2022/10/05 06:44:48;;;;;;;5.97;3.80;;;;;;;15.29;63.59;101395.03;4904596;28;98037;-50
2022/10/05 06:47:45;;;;;;;6.17;4.07;;;;;;;15.37;63.73;101398.06;4903062;28;98440;-50
2022/10/05 06:50:26;;;;;;;4.77;3.80;;;;;;;15.46;63.46;101395.03;4905043;28;97638;-50
2022/10/05 06:53:25;;;;;;;8.70;3.50;;;;;;;15.52;63.52;101387.47;4905132;28;96976;-50
2022/10/05 06:56:09;;;;;;;6.53;4.13;;;;;;;15.58;63.30;101393.75;4902096;28;101856;-50
2022/10/05 06:59:09;;;;;;;4.00;3.70;;;;;;;15.65;63.45;101384.91;4904828;28;100902;-50
2022/10/05 07:01:44;;;;;;;4.60;3.77;;;;;;;15.74;63.45;101382.59;4904435;28;96954;-50
2022/10/05 07:04:18;;;;;;;4.67;3.83;;;;;;;15.85;63.33;101390.13;4905733;28;97735;-50
2022/10/05 07:06:58;;;;;;;5.57;4.67;;;;;;;15.95;63.45;101380.22;4902490;28;103498;-50
2022/10/05 07:09:47;;;;;;;7.17;4.27;;;;;;;16.05;63.14;101381.47;4907375;28;97554;-50
2022/10/05 07:12:29;;;;;;;4.10;3.80;;;;;;;16.12;62.97;101380.16;4908292;28;97512;-50
2022/10/05 07:15:06;;;;;;;4.77;4.20;;;;;;;16.17;62.87;101380.13;4908199;28;97599;-51
2022/10/05 07:18:08;;;;;;;4.50;3.60;;;;;;;16.24;62.95;101376.03;4903856;28;97709;-50
2022/10/05 07:20:57;;;;;;;7.03;3.60;;;;;;;16.27;62.71;101372.25;4902305;28;103053;-51
2022/10/05 07:23:31;;;;;;;8.53;3.80;;;;;;;16.30;62.80;101371.97;4906392;28;97253;-51
2022/10/05 07:26:13;;;;;;;5.03;3.90;;;;;;;16.33;62.80;101368.16;4905678;28;96788;-49
2022/10/05 07:29:06;;;;;;;5.67;4.30;;;;;;;16.37;62.94;101374.19;4906638;28;103167;-50
2022/10/05 07:31:57;;;;;;;4.80;3.97;;;;;;;16.40;62.92;101375.91;4904746;28;100341;-49
2022/10/05 07:34:33;;;;;;;7.97;4.00;;;;;;;16.42;62.72;101369.88;4903933;28;96910;-50
2022/10/05 07:40:02;;;;;;;3.87;3.50;;;;;;;16.51;62.67;101377.16;4904141;28;101751;-50
2022/10/05 07:42:37;;;;;;;3.30;2.67;;;;;;;16.59;62.76;101378.09;4907838;28;98992;-50
2022/10/05 07:45:28;;;;;;;6.97;3.40;;;;;;;16.70;62.77;101381.56;4906880;28;98454;-50
2022/10/05 07:47:56;;;;;;;5.83;3.53;;;;;;;16.82;62.57;101385.75;4905361;28;96841;-49
2022/10/05 07:50:32;;;;;;;4.53;3.33;;;;;;;16.96;62.41;101383.88;4905448;28;98082;-50
2022/10/05 07:53:04;;;;;;;2.73;2.53;;;;;;;17.04;62.31;101382.00;4908066;28;96896;-51
2022/10/05 07:55:46;;;;;;;4.43;3.03;;;;;;;17.16;62.20;101395.31;4905960;28;97014;-51
2022/10/05 07:58:29;;;;;;;5.30;2.87;;;;;;;17.27;62.02;101383.31;4907147;28;98366;-50
2022/10/05 08:01:18;;;;;;;3.27;2.90;;;;;;;17.37;61.81;101395.59;4908027;28;103088;-50
2022/10/05 08:03:56;;;;;;;3.13;2.90;;;;;;;17.46;62.16;101392.47;4906960;28;101540;-50
2022/10/05 08:06:25;;;;;;;4.83;2.80;;;;;;;17.52;61.87;101398.00;4904744;28;97192;-50
2022/10/05 08:09:01;;;;;;;8.93;3.30;;;;;;;17.58;61.75;101401.50;4907770;28;98448;-49
2022/10/05 08:11:34;;;;;;;3.93;3.10;;;;;;;17.60;61.55;101401.72;4900787;28;97485;-49
2022/10/05 08:14:27;;;;;;;4.00;2.97;;;;;;;17.62;61.74;101396.38;4907464;28;97599;-49
2022/10/05 08:16:57;;;;;;;3.97;3.20;;;;;;;17.62;61.65;101397.13;4905929;28;98822;-50
2022/10/05 08:19:31;;;;;;;5.40;3.40;;;;;;;17.64;61.50;101388.25;4908390;28;96995;-49
2022/10/05 08:22:04;;;;;;;6.03;2.87;;;;;;;17.64;61.57;101414.06;4903714;28;97206;-50
2022/10/05 08:24:40;;;;;;;4.63;3.00;;;;;;;17.67;61.56;101390.75;4907444;28;97148;-50
2022/10/05 08:27:15;;;;;;;3.53;3.33;;;;;;;17.71;61.65;101396.75;4903626;28;97708;-50
2022/10/05 08:29:53;;;;;;;2.73;2.53;;;;;;;17.74;61.75;101404.06;4904038;28;97118;-49
2022/10/05 08:32:27;;;;;;;2.70;2.47;;;;;;;17.79;61.50;101397.69;4906184;28;100128;-49
2022/10/05 08:35:01;;;;;;;2.77;2.57;;;;;;;17.86;61.43;101391.53;4904613;28;102644;-49
2022/10/05 08:37:36;;;;;;;3.53;3.23;;;;;;;17.95;61.34;101391.16;4906357;28;97433;-50
2022/10/05 08:40:38;;;;;;;3.60;3.00;;;;;;;18.06;61.33;101395.84;4908125;28;96743;-49
2022/10/05 08:43:12;;;;;;;3.50;2.60;;;;;;;18.13;61.20;101414.72;4907234;28;101332;-49
2022/10/05 08:46:07;;;;;;;4.80;3.10;;;;;;;18.19;61.08;101393.13;4904480;28;100053;-50
2022/10/05 08:48:59;;;;;;;5.90;2.43;;;;;;;18.23;60.78;101401.94;4899311;28;97345;-49
2022/10/05 08:51:45;;;;;;;2.97;2.67;;;;;;;18.25;60.69;101387.47;4907216;28;97240;-49
2022/10/05 08:54:46;;;;;;;3.37;3.07;;;;;;;18.25;60.57;101396.59;4906611;28;100389;-50
2022/10/05 08:57:49;;;;;;;6.03;3.00;;;;;;;18.28;60.45;101395.50;4907439;28;101694;-50
2022/10/05 09:00:19;;;;;;;4.63;2.70;;;;;;;18.34;60.97;101396.22;4903086;28;97283;-49
2022/10/05 09:03:35;;;;;;;4.37;2.67;;;;;;;18.41;60.65;101394.84;4903718;28;97473;-50
2022/10/05 09:06:25;;;;;;;4.30;3.17;;;;;;;18.46;60.26;101396.81;4883439;28;100663;-50
2022/10/05 09:09:09;;;;;;;3.40;3.20;;;;;;;18.51;60.45;101396.75;4907158;28;97487;-49
2022/10/05 09:11:38;;;;;;;2.70;2.50;;;;;;;18.57;60.49;101394.63;4905125;28;97033;-50
2022/10/05 09:14:22;;;;;;;2.97;2.77;;;;;;;18.62;60.19;101393.78;4905677;28;97558;-50
2022/10/05 09:16:51;;;;;;;3.30;3.00;;;;;;;18.68;60.45;101390.91;4902941;28;97320;-50
2022/10/05 09:19:39;;;;;;;2.30;2.10;;;;;;;18.75;60.22;101384.72;4905754;28;97745;-50
2022/10/05 09:22:39;;;;;;;2.97;2.40;;;;;;;18.82;59.90;101391.69;4907475;28;98180;-50
2022/10/05 09:25:40;;;;;;;4.10;2.87;;;;;;;18.85;59.93;101387.84;4906689;28;97581;-50
2022/10/05 09:28:31;;;;;;;2.50;2.30;;;;;;;18.90;60.18;101382.16;4901728;28;100737;-49
2022/10/05 09:31:15;;;;;;;3.33;2.27;;;;;;;18.94;59.80;101382.59;4901814;28;101548;-49
2022/10/05 09:34:19;;;;;;;3.67;2.70;;;;;;;18.95;59.40;101380.56;4903888;28;97126;-50
2022/10/05 09:37:13;;;;;;;4.00;2.30;;;;;;;18.94;59.91;101390.97;4902932;28;97349;-50
2022/10/05 09:40:05;;;;;;;3.27;3.03;;;;;;;18.91;59.30;101394.84;4902620;28;101286;-49
2022/10/05 09:43:00;;;;;;;3.00;2.80;;;;;;;18.89;59.47;101380.69;4903589;28;99974;-50
2022/10/05 09:45:45;;;;;;;3.57;2.30;;;;;;;18.92;60.00;101381.63;4902840;28;97444;-50
2022/10/05 09:48:38;;;;;;;5.17;2.63;;;;;;;18.91;59.32;101380.16;4903379;28;97308;-50
2022/10/05 09:51:29;;;;;;;3.20;2.90;;;;;;;18.89;59.03;101374.34;4905702;28;100511;-50
2022/10/05 09:54:32;;;;;;;2.33;2.20;;;;;;;18.85;59.06;101369.06;4900672;28;100000;-50
2022/10/05 09:57:30;;;;;;;4.20;2.67;;;;;;;18.85;59.06;101377.44;4902658;28;97492;-50
2022/10/05 10:00:20;;;;;;;3.43;2.00;;;;;;;18.93;59.27;101378.34;4903601;28;99322;-50
2022/10/05 10:03:08;;;;;;;2.97;2.00;;;;;;;18.98;58.83;101380.25;4904255;28;101272;-51
2022/10/05 10:05:33;;;;;;;2.40;2.20;;;;;;;19.01;59.36;101389.59;4904067;28;103425;-49
2022/10/05 10:08:24;;;;;;;2.07;1.97;;;;;;;19.03;58.02;101373.84;4902915;28;97356;-50
2022/10/05 10:10:59;;;;;;;2.63;2.40;;;;;;;19.05;58.42;101379.63;4902707;28;97394;-50
2022/10/05 10:13:59;;;;;;;1.70;1.60;;;;;;;19.10;58.17;101378.78;4902512;28;102546;-52
2022/10/05 10:16:58;;;;;;;2.40;1.60;;;;;;;19.14;58.06;101379.22;4906180;28;101733;-49
2022/10/05 10:19:34;;;;;;;2.20;2.00;;;;;;;19.18;58.02;101388.03;4905572;28;97662;-50
2022/10/05 10:22:37;;;;;;;2.00;1.47;;;;;;;19.20;57.77;101376.31;4903284;28;97350;-50
2022/10/05 10:25:18;;;;;;;1.93;1.83;;;;;;;19.22;57.93;101382.88;4901922;28;100542;-50
2022/10/05 10:28:14;;;;;;;1.60;1.50;;;;;;;19.23;57.67;101378.81;4903613;28;101567;-49
2022/10/05 10:30:53;;;;;;;2.53;2.33;;;;;;;19.18;57.72;101378.88;4904372;28;97151;-51
2022/10/05 10:33:23;;;;;;;2.30;2.10;;;;;;;19.18;58.26;101381.69;4900286;28;97473;-50
2022/10/05 10:36:03;;;;;;;3.33;2.10;;;;;;;19.23;57.79;101375.25;4907897;28;98101;-51
2022/10/05 10:38:34;;;;;;;2.30;2.20;;;;;;;19.21;57.89;101373.00;4907815;28;96925;-49
2022/10/05 10:41:09;;;;;;;3.23;1.90;;;;;;;19.21;58.28;101381.38;4903001;28;97213;-49
2022/10/05 10:43:40;;;;;;;2.30;2.20;;;;;;;19.21;58.10;101369.47;4909283;28;97370;-50
2022/10/05 10:46:21;;;;;;;5.80;2.03;;;;;;;19.21;57.79;101375.78;4908226;28;97183;-50
2022/10/05 10:49:12;;;;;;;2.47;2.30;;;;;;;19.21;57.27;101370.22;4909138;28;97593;-50
2022/10/05 10:51:46;;;;;;;2.33;2.20;;;;;;;19.20;57.72;101363.13;4907533;28;97048;-50
2022/10/05 10:54:34;;;;;;;3.30;2.57;;;;;;;19.23;57.62;101364.09;4909446;28;96949;-50
2022/10/05 10:57:14;;;;;;;2.70;2.50;;;;;;;19.24;57.17;101363.56;4906632;28;101244;-50
2022/10/05 11:00:14;;;;;;;2.17;2.07;;;;;;;19.26;57.36;101357.47;4907628;28;100867;-50
2022/10/05 11:03:27;;;;;;;1.90;1.77;;;;;;;19.32;57.22;101342.09;4903868;28;97359;-50
2022/10/05 11:06:06;;;;;;;2.23;2.13;;;;;;;19.36;57.19;101348.16;4882219;28;97503;-49
2022/10/05 11:08:47;;;;;;;2.80;2.07;;;;;;;19.42;57.40;101340.41;4907913;28;97766;-50
2022/10/05 11:11:26;;;;;;;3.03;2.27;;;;;;;19.52;57.48;101329.56;4906550;28;102243;-50
2022/10/05 11:14:09;;;;;;;2.50;2.20;;;;;;;19.63;57.63;101334.16;4910342;28;97464;-50
2022/10/05 11:16:37;;;;;;;2.43;2.20;;;;;;;19.68;57.34;101322.88;4906262;28;101526;-50
2022/10/05 11:19:37;;;;;;;4.10;1.80;;;;;;;19.76;56.79;101320.19;4907561;28;97557;-50
2022/10/05 11:22:13;;;;;;;2.10;2.00;;;;;;;19.89;56.80;101325.75;4906157;28;101680;-50
2022/10/05 11:24:57;;;;;;;2.00;1.90;;;;;;;19.95;56.50;101315.94;4910224;28;96788;-50
2022/10/05 11:28:04;;;;;;;1.93;1.50;;;;;;;20.04;56.10;101314.72;4907255;28;97568;-50
2022/10/05 11:30:44;;;;;;;2.77;2.20;;;;;;;20.12;56.79;101309.97;4906274;28;101456;-51
2022/10/05 11:33:12;;;;;;;2.67;2.30;;;;;;;20.12;56.77;101312.75;4905025;28;99926;-50
2022/10/05 11:36:16;;;;;;;2.50;1.77;;;;;;;20.17;55.72;101306.31;4908573;28;97171;-51
2022/10/05 11:38:52;;;;;;;3.93;1.70;;;;;;;20.19;55.64;101315.66;4889517;28;99267;-50
2022/10/05 11:41:57;;;;;;;1.77;1.67;;;;;;;20.20;55.60;101296.84;4906893;28;97635;-50
2022/10/05 11:44:50;;;;;;;2.13;1.70;;;;;;;20.23;55.84;101292.22;4906587;28;100352;-50
2022/10/05 11:47:36;;;;;;;1.60;1.50;;;;;;;20.24;55.49;101294.47;4906520;28;96780;-54
2022/10/05 11:50:34;;;;;;;1.80;1.70;;;;;;;20.24;55.55;101288.91;4908022;28;97520;-50
2022/10/05 11:53:24;;;;;;;1.90;1.80;;;;;;;20.22;55.66;101268.38;4905011;28;101902;-50
2022/10/05 11:56:11;;;;;;;2.03;1.83;;;;;;;20.25;55.45;101273.59;4900826;28;100322;-50
2022/10/05 11:58:48;;;;;;;1.70;1.60;;;;;;;20.32;55.91;101278.53;4904703;28;99437;-50
2022/10/05 12:01:26;;;;;;;1.43;1.33;;;;;;;20.33;55.41;101273.69;4906410;28;97338;-50
2022/10/05 12:04:16;;;;;;;1.80;1.70;;;;;;;20.37;55.65;101268.50;4906029;28;97444;-49
2022/10/05 12:07:01;;;;;;;1.37;1.17;;;;;;;20.39;55.46;101266.66;4908149;28;101695;-49
2022/10/05 12:10:13;;;;;;;4.73;1.67;;;;;;;20.45;55.96;101266.53;4902025;28;97378;-49
2022/10/05 12:12:44;;;;;;;2.00;1.33;;;;;;;20.52;54.99;101260.25;4904539;28;97039;-50
2022/10/05 12:15:50;;;;;;;3.30;1.90;;;;;;;20.53;54.61;101244.97;4905415;28;105188;-55
2022/10/05 12:18:15;;;;;;;2.63;1.80;;;;;;;20.57;55.66;101259.38;4869116;28;100128;-50
2022/10/05 12:20:57;;;;;;;2.30;1.60;;;;;;;20.62;55.01;101250.81;4908464;28;96956;-50
2022/10/05 12:23:29;;;;;;;2.13;1.23;;;;;;;20.71;55.21;101247.53;4905386;28;97148;-50
2022/10/05 12:26:05;;;;;;;2.03;1.40;;;;;;;20.77;54.26;101245.31;4907636;28;97032;-51
2022/10/05 12:28:37;;;;;;;1.00;0.90;;;;;;;20.77;55.12;101242.53;4907190;28;97944;-50